createdAt,value
2023-04-17T00:01:24.210Z,95.80
2023-04-17T00:04:26.754Z,95.70
2023-04-17T00:07:28.967Z,95.80
2023-04-17T00:10:30.848Z,96.00
2023-04-17T00:13:32.390Z,95.80
2023-04-17T00:16:34.042Z,96.00
2023-04-17T00:19:35.715Z,96.00
2023-04-17T00:22:38.330Z,96.10
2023-04-17T00:25:39.876Z,96.10
2023-04-17T00:28:41.521Z,96.20
2023-04-17T00:31:43.490Z,95.90
2023-04-17T00:34:45.092Z,96.50
2023-04-17T00:37:48.253Z,96.00
2023-04-17T00:40:51.502Z,96.10
2023-04-17T00:43:53.040Z,96.10
2023-04-17T00:46:55.661Z,96.00
2023-04-17T00:49:57.669Z,96.10
2023-04-17T00:53:00.578Z,96.60
2023-04-17T00:56:06.529Z,96.10
2023-04-17T00:59:12.890Z,96.10
2023-04-17T01:02:16.666Z,96.10
2023-04-17T01:05:18.313Z,96.00
2023-04-17T01:08:19.964Z,96.00
2023-04-17T01:11:22.024Z,96.20
2023-04-17T01:14:23.655Z,96.20
2023-04-17T01:17:26.599Z,96.30
2023-04-17T01:20:30.054Z,96.20
2023-04-17T01:23:51.884Z,96.40
2023-04-17T01:26:53.596Z,95.80
2023-04-17T01:29:55.154Z,96.20
2023-04-17T01:32:57.044Z,96.30
2023-04-17T01:35:58.815Z,96.50
2023-04-17T01:39:00.638Z,96.40
2023-04-17T01:42:02.222Z,95.90
2023-04-17T01:45:05.423Z,96.40
2023-04-17T01:48:06.975Z,96.40
2023-04-17T01:51:08.623Z,96.50
2023-04-17T01:54:10.548Z,96.60
2023-04-17T01:57:15.397Z,95.90
2023-04-17T02:00:17.249Z,96.40
2023-04-17T02:03:19.180Z,96.70
2023-04-17T02:06:20.920Z,96.70
2023-04-17T02:09:22.660Z,96.80
2023-04-17T02:12:24.283Z,96.50
2023-04-17T02:15:26.088Z,96.70
2023-04-17T02:18:28.261Z,96.40
2023-04-17T02:21:29.812Z,96.80
2023-04-17T02:24:31.727Z,96.80
2023-04-17T02:27:33.271Z,96.90
2023-04-17T02:30:34.839Z,96.80
2023-04-17T02:33:36.719Z,96.80
2023-04-17T02:36:38.319Z,96.90
2023-04-17T02:39:39.912Z,96.90
2023-04-17T02:42:41.719Z,97.60
2023-04-17T02:45:43.253Z,96.90
2023-04-17T02:48:44.883Z,97.00
2023-04-17T02:51:46.450Z,97.00
2023-04-17T02:54:47.993Z,97.00
2023-04-17T02:57:49.552Z,97.00
2023-04-17T03:00:51.221Z,97.00
2023-04-17T03:03:53.439Z,97.00
2023-04-17T03:06:55.150Z,97.00
2023-04-17T03:09:57.444Z,97.00
2023-04-17T03:12:59.065Z,96.80
2023-04-17T03:16:01.397Z,96.80
2023-04-17T03:19:03.311Z,97.00
2023-04-17T03:22:04.870Z,97.00
2023-04-17T03:25:06.783Z,96.90
2023-04-17T03:28:08.338Z,96.70
2023-04-17T03:31:09.886Z,96.90
2023-04-17T03:34:11.524Z,96.90
2023-04-17T03:37:13.101Z,96.90
2023-04-17T03:40:14.679Z,96.80
2023-04-17T03:43:16.277Z,96.70
2023-04-17T03:46:17.945Z,96.70
2023-04-17T03:49:19.589Z,96.80
2023-04-17T03:52:21.427Z,96.60
2023-04-17T03:55:23.047Z,96.70
2023-04-17T03:58:24.871Z,97.20
2023-04-17T04:01:28.324Z,96.70
2023-04-17T04:04:30.474Z,97.00
2023-04-17T04:07:32.218Z,96.70
2023-04-17T04:10:33.835Z,96.90
2023-04-17T04:13:36.323Z,96.80
2023-04-17T04:16:37.871Z,96.60
2023-04-17T04:19:39.737Z,96.80
2023-04-17T04:22:41.569Z,96.90
2023-04-17T04:25:43.522Z,96.90
2023-04-17T04:28:45.282Z,97.10
2023-04-17T04:31:50.837Z,96.80
2023-04-17T04:34:52.660Z,97.60
2023-04-17T04:37:54.670Z,97.10
2023-04-17T04:41:06.575Z,97.10
2023-04-17T04:44:08.245Z,97.20
2023-04-17T04:47:09.759Z,97.20
2023-04-17T04:50:11.322Z,97.10
2023-04-17T04:53:12.883Z,97.10
2023-04-17T04:56:15.583Z,97.10
2023-04-17T04:59:17.103Z,96.50
2023-04-17T05:02:18.890Z,97.10
2023-04-17T05:05:20.656Z,97.40
2023-04-17T05:08:22.404Z,96.90
2023-04-17T05:11:23.944Z,97.00
2023-04-17T05:14:25.977Z,97.00
2023-04-17T05:17:27.610Z,97.00
2023-04-17T05:20:29.233Z,96.90
2023-04-17T05:23:30.789Z,96.90
2023-04-17T05:26:32.618Z,96.90
2023-04-17T05:29:34.246Z,97.00
2023-04-17T05:32:35.937Z,97.00
2023-04-17T05:35:37.505Z,96.90
2023-04-17T05:38:39.135Z,97.00
2023-04-17T05:41:40.742Z,96.80
2023-04-17T05:44:42.313Z,96.80
2023-04-17T05:47:44.408Z,96.80
2023-04-17T05:50:46.477Z,96.80
2023-04-17T05:53:48.944Z,96.80
2023-04-17T05:56:51.831Z,96.90
2023-04-17T05:59:53.377Z,96.70
2023-04-17T06:02:55.188Z,96.80
2023-04-17T06:05:57.248Z,96.70
2023-04-17T06:08:59.021Z,96.70
2023-04-17T06:12:00.596Z,96.70
2023-04-17T06:15:02.296Z,96.90
2023-04-17T06:18:04.316Z,96.70
2023-04-17T06:21:07.566Z,96.20
2023-04-17T06:24:09.129Z,96.50
2023-04-17T06:27:10.777Z,96.60
2023-04-17T06:30:12.710Z,96.40
2023-04-17T06:33:14.447Z,96.30
2023-04-17T06:36:16.058Z,96.40
2023-04-17T06:39:17.783Z,96.60
2023-04-17T06:42:20.454Z,96.40
2023-04-17T06:45:22.082Z,96.60
2023-04-17T06:48:23.868Z,96.40
2023-04-17T06:51:27.562Z,96.00
2023-04-17T06:54:29.326Z,96.40
2023-04-17T06:57:30.877Z,96.00
2023-04-17T07:00:32.442Z,96.40
2023-04-17T07:03:34.147Z,96.40
2023-04-17T07:06:36.625Z,96.40
2023-04-17T07:09:38.353Z,96.40
2023-04-17T07:12:40.132Z,96.50
2023-04-17T07:15:41.886Z,96.00
2023-04-17T07:18:43.525Z,96.40
2023-04-17T07:21:45.096Z,96.40
2023-04-17T07:24:46.660Z,96.40
2023-04-17T07:27:48.288Z,96.30
2023-04-17T07:30:49.836Z,96.30
2023-04-17T07:33:51.378Z,96.30
2023-04-17T07:36:53.351Z,96.30
2023-04-17T07:39:54.920Z,96.20
2023-04-17T07:42:56.718Z,96.20
2023-04-17T07:45:58.817Z,96.00
2023-04-17T07:49:00.501Z,96.00
2023-04-17T07:52:02.245Z,95.90
2023-04-17T07:55:04.112Z,95.90
2023-04-17T07:58:06.384Z,95.70
2023-04-17T08:01:08.206Z,95.80
2023-04-17T08:04:10.293Z,95.90
2023-04-17T08:07:13.007Z,95.20
2023-04-17T08:10:14.664Z,96.30
2023-04-17T08:13:16.630Z,95.70
2023-04-17T08:16:18.234Z,95.70
2023-04-17T08:19:19.904Z,95.60
2023-04-17T08:22:23.999Z,95.60
2023-04-17T08:25:25.705Z,96.00
2023-04-17T08:28:27.710Z,95.30
2023-04-17T08:31:31.469Z,95.50
2023-04-17T08:34:33.174Z,95.10
2023-04-17T08:37:36.014Z,95.40
2023-04-17T08:40:41.888Z,95.30
2023-04-17T08:43:48.466Z,95.20
2023-04-17T08:46:51.107Z,95.30
2023-04-17T08:49:52.683Z,95.30
2023-04-17T08:52:54.240Z,95.30
2023-04-17T08:55:57.567Z,95.10
2023-04-17T08:58:59.253Z,95.70
2023-04-17T09:02:05.582Z,94.70
2023-04-17T09:05:19.271Z,93.80
2023-04-17T09:08:23.982Z,94.40
2023-04-17T09:11:26.574Z,94.40
2023-04-17T09:14:31.477Z,94.30
2023-04-17T09:17:34.778Z,94.20
2023-04-17T09:20:49.517Z,94.60
2023-04-17T09:23:52.557Z,94.20
2023-04-17T09:26:54.138Z,94.30
2023-04-17T09:30:03.651Z,94.00
2023-04-17T09:33:07.186Z,93.10
2023-04-17T09:36:32.068Z,93.80
2023-04-17T09:39:34.726Z,93.40
2023-04-17T09:42:54.020Z,93.40
2023-04-17T09:45:55.583Z,93.10
2023-04-17T09:49:00.778Z,93.00
2023-04-17T09:52:03.664Z,92.60
2023-04-17T09:55:07.534Z,92.10
2023-04-17T09:58:09.589Z,91.70
2023-04-17T10:01:13.100Z,91.50
2023-04-17T10:04:15.468Z,91.40
2023-04-17T10:07:18.591Z,91.10
2023-04-17T10:10:36.471Z,90.90
2023-04-17T10:13:40.475Z,90.80
2023-04-17T10:16:44.979Z,91.10
2023-04-17T10:19:46.853Z,90.50
2023-04-17T10:22:54.434Z,91.40
2023-04-17T10:26:27.907Z,90.70
2023-04-17T10:29:58.788Z,90.20
2023-04-17T10:33:12.814Z,89.90
2023-04-17T10:36:40.392Z,90.10
2023-04-17T10:39:59.673Z,86.80
2023-04-17T10:43:13.519Z,90.30
2023-04-17T10:46:17.510Z,90.00
2023-04-17T10:49:21.492Z,90.00
2023-04-17T10:52:38.801Z,90.20
2023-04-17T10:55:50.304Z,93.50
2023-04-17T10:58:59.879Z,90.10
2023-04-17T11:02:04.237Z,90.00
2023-04-17T11:05:07.694Z,89.20
2023-04-17T11:08:10.918Z,87.80
2023-04-17T11:11:12.505Z,86.80
2023-04-17T11:14:22.527Z,86.60
2023-04-17T11:17:24.209Z,86.00
2023-04-17T11:20:29.054Z,86.00
2023-04-17T11:23:34.421Z,85.60
2023-04-17T11:26:46.584Z,85.40
2023-04-17T11:29:48.132Z,85.20
2023-04-17T11:32:49.805Z,85.70
2023-04-17T11:35:52.396Z,86.00
2023-04-17T11:38:56.842Z,86.40
2023-04-17T11:41:58.910Z,86.40
2023-04-17T11:45:06.803Z,87.10
2023-04-17T11:48:13.043Z,86.00
2023-04-17T11:51:18.202Z,85.70
2023-04-17T11:54:31.100Z,85.50
2023-04-17T11:57:43.618Z,84.70
2023-04-17T12:00:48.287Z,84.00
2023-04-17T12:03:50.382Z,85.70
2023-04-17T12:06:56.503Z,82.80
2023-04-17T12:09:58.920Z,82.20
2023-04-17T12:13:00.488Z,83.10
2023-04-17T12:16:02.295Z,82.20
2023-04-17T12:19:04.088Z,83.20
2023-04-17T12:22:06.122Z,82.30
2023-04-17T12:25:08.151Z,82.30
2023-04-17T12:28:09.710Z,82.10
2023-04-17T12:31:11.351Z,83.00
2023-04-17T12:34:13.187Z,80.90
2023-04-17T12:37:14.912Z,80.20
2023-04-17T12:40:23.811Z,80.80
2023-04-17T12:43:26.148Z,80.40
2023-04-17T12:46:27.978Z,81.00
2023-04-17T12:49:29.822Z,80.90
2023-04-17T12:52:31.404Z,80.50
2023-04-17T12:55:33.145Z,80.90
2023-04-17T12:58:34.798Z,79.90
2023-04-17T13:01:36.630Z,81.00
2023-04-17T13:04:39.503Z,79.90
2023-04-17T13:07:41.370Z,81.00
2023-04-17T13:10:43.089Z,79.90
2023-04-17T13:13:45.026Z,81.40
2023-04-17T13:16:48.625Z,80.40
2023-04-17T13:19:50.319Z,79.80
2023-04-17T13:22:54.773Z,80.00
2023-04-17T13:25:56.386Z,80.60
2023-04-17T13:28:57.906Z,79.10
2023-04-17T13:32:02.769Z,78.40
2023-04-17T13:35:05.080Z,77.60
2023-04-17T13:38:06.846Z,76.40
2023-04-17T13:41:08.432Z,76.60
2023-04-17T13:44:10.035Z,76.20
2023-04-17T13:47:15.306Z,74.90
2023-04-17T13:50:17.006Z,75.20
2023-04-17T13:53:19.711Z,74.10
2023-04-17T13:56:23.341Z,73.30
2023-04-17T13:59:25.283Z,73.80
2023-04-17T14:02:26.937Z,72.60
2023-04-17T14:05:28.888Z,72.90
2023-04-17T14:08:30.534Z,73.00
2023-04-17T14:11:32.178Z,74.90
2023-04-17T14:14:33.758Z,74.20
2023-04-17T14:17:38.106Z,75.60
2023-04-17T14:20:39.830Z,75.10
2023-04-17T14:23:41.739Z,74.10
2023-04-17T14:26:43.486Z,74.60
2023-04-17T14:29:45.161Z,75.00
2023-04-17T14:32:47.112Z,73.10
2023-04-17T14:35:48.929Z,72.50
2023-04-17T14:38:52.528Z,72.20
2023-04-17T14:41:54.078Z,73.10
2023-04-17T14:44:55.619Z,72.50
2023-04-17T14:47:57.812Z,72.30
2023-04-17T14:51:00.638Z,72.10
2023-04-17T14:54:02.324Z,71.20
2023-04-17T14:57:04.036Z,69.70
2023-04-17T15:00:07.708Z,68.90
2023-04-17T15:03:09.476Z,67.30
2023-04-17T15:06:11.436Z,69.40
2023-04-17T15:09:13.406Z,70.00
2023-04-17T15:12:15.226Z,70.80
2023-04-17T15:15:16.943Z,71.80
2023-04-17T15:18:18.503Z,72.30
2023-04-17T15:21:20.111Z,73.20
2023-04-17T15:24:21.755Z,72.70
2023-04-17T15:27:23.599Z,73.70
2023-04-17T15:30:25.374Z,72.80
2023-04-17T15:33:26.906Z,70.70
2023-04-17T15:36:33.660Z,71.40
2023-04-17T15:39:39.398Z,70.50
2023-04-17T15:42:41.186Z,70.00
2023-04-17T15:45:43.377Z,69.80
2023-04-17T15:48:48.277Z,71.70
2023-04-17T15:51:56.657Z,70.80
2023-04-17T15:54:58.478Z,71.50
2023-04-17T15:58:00.196Z,71.20
2023-04-17T16:01:01.913Z,70.90
2023-04-17T16:04:03.785Z,70.60
2023-04-17T16:07:06.100Z,70.40
2023-04-17T16:10:14.514Z,70.60
2023-04-17T16:13:16.638Z,70.10
2023-04-17T16:16:18.236Z,72.10
2023-04-17T16:19:20.580Z,71.00
2023-04-17T16:22:22.163Z,71.10
2023-04-17T16:25:23.853Z,70.90
2023-04-17T16:28:25.454Z,71.30
2023-04-17T16:31:27.822Z,71.70
2023-04-17T16:34:29.455Z,71.00
2023-04-17T16:37:31.415Z,70.80
2023-04-17T16:40:33.074Z,71.30
2023-04-17T16:43:34.619Z,70.50
2023-04-17T16:46:52.218Z,70.70
2023-04-17T16:49:58.460Z,69.50
2023-04-17T16:53:00.015Z,71.50
2023-04-17T16:56:01.723Z,69.40
2023-04-17T16:59:04.338Z,68.60
2023-04-17T17:02:09.036Z,69.10
2023-04-17T17:05:10.606Z,69.80
2023-04-17T17:08:13.689Z,68.50
2023-04-17T17:11:19.436Z,69.30
2023-04-17T17:14:21.144Z,69.00
2023-04-17T17:17:22.980Z,69.50
2023-04-17T17:20:24.859Z,68.60
2023-04-17T17:23:26.842Z,68.10
2023-04-17T17:26:28.528Z,69.70
2023-04-17T17:29:30.145Z,69.40
2023-04-17T17:32:31.808Z,71.10
2023-04-17T17:35:33.810Z,70.10
2023-04-17T17:38:35.442Z,71.90
2023-04-17T17:41:37.001Z,69.30
2023-04-17T17:44:38.669Z,69.30
2023-04-17T17:47:40.450Z,68.10
2023-04-17T17:50:42.985Z,68.40
2023-04-17T17:53:44.535Z,67.80
2023-04-17T17:56:46.165Z,66.00
2023-04-17T17:59:47.753Z,67.80
2023-04-17T18:02:49.580Z,66.90
2023-04-17T18:05:52.518Z,69.50
2023-04-17T18:08:54.210Z,69.80
2023-04-17T18:11:55.797Z,70.70
2023-04-17T18:14:57.495Z,71.40
2023-04-17T18:17:59.155Z,71.60
2023-04-17T18:21:05.877Z,72.40
2023-04-17T18:24:08.271Z,73.40
2023-04-17T18:27:09.847Z,72.10
2023-04-17T18:30:12.122Z,72.40
2023-04-17T18:33:13.665Z,72.60
2023-04-17T18:36:15.409Z,73.00
2023-04-17T18:39:19.709Z,72.90
2023-04-17T18:42:21.906Z,73.20
2023-04-17T18:45:24.354Z,73.30
2023-04-17T18:48:26.107Z,73.90
2023-04-17T18:51:27.717Z,73.40
2023-04-17T18:54:29.703Z,73.40
2023-04-17T18:57:31.581Z,73.90
2023-04-17T19:00:33.198Z,73.60
2023-04-17T19:03:34.828Z,73.70
2023-04-17T19:06:36.620Z,73.90
2023-04-17T19:09:38.384Z,73.20
2023-04-17T19:12:42.398Z,73.90
2023-04-17T19:15:43.942Z,74.00
2023-04-17T19:18:45.598Z,74.00
2023-04-17T19:21:47.550Z,73.60
2023-04-17T19:24:50.953Z,73.80
2023-04-17T19:27:52.544Z,74.20
2023-04-17T19:30:55.907Z,74.10
2023-04-17T19:33:57.540Z,74.00
2023-04-17T19:36:59.117Z,74.00
2023-04-17T19:40:02.544Z,74.00
2023-04-17T19:43:06.366Z,74.60
2023-04-17T19:46:09.263Z,74.60
2023-04-17T19:49:15.580Z,74.90
2023-04-17T19:52:17.233Z,73.60
2023-04-17T19:55:19.345Z,75.10
2023-04-17T19:58:21.068Z,75.30
2023-04-17T20:01:22.703Z,76.70
2023-04-17T20:04:24.588Z,76.50
2023-04-17T20:07:26.825Z,75.60
2023-04-17T20:10:28.793Z,75.90
2023-04-17T20:13:30.414Z,76.80
2023-04-17T20:16:32.146Z,76.00
2023-04-17T20:19:33.762Z,75.70
2023-04-17T20:22:35.797Z,77.40
2023-04-17T20:25:37.365Z,76.50
2023-04-17T20:28:38.942Z,76.60
2023-04-17T20:31:40.542Z,76.70
2023-04-17T20:34:42.165Z,76.70
2023-04-17T20:37:44.539Z,78.00
2023-04-17T20:40:46.217Z,76.70
2023-04-17T20:43:59.414Z,76.80
2023-04-17T20:47:04.007Z,75.40
2023-04-17T20:50:09.376Z,77.00
2023-04-17T20:53:11.056Z,76.90
2023-04-17T20:56:12.651Z,77.40
2023-04-17T20:59:16.660Z,77.00
2023-04-17T21:02:18.380Z,77.40
2023-04-17T21:05:20.221Z,77.30
2023-04-17T21:08:21.922Z,77.50
2023-04-17T21:11:23.474Z,77.40
2023-04-17T21:14:25.196Z,77.70
2023-04-17T21:17:26.755Z,78.00
2023-04-17T21:20:28.422Z,77.80
2023-04-17T21:23:31.347Z,77.50
2023-04-17T21:26:36.214Z,77.50
2023-04-17T21:29:37.841Z,78.00
2023-04-17T21:32:40.587Z,77.40
2023-04-17T21:35:42.286Z,77.60
2023-04-17T21:38:45.018Z,77.80
2023-04-17T21:41:46.602Z,77.50
2023-04-17T21:44:48.177Z,77.80
2023-04-17T21:47:49.824Z,77.60
2023-04-17T21:50:51.569Z,77.30
2023-04-17T21:53:53.120Z,77.60
2023-04-17T21:56:54.721Z,77.60
2023-04-17T21:59:56.305Z,77.60
2023-04-17T22:02:58.339Z,77.60
2023-04-17T22:06:00.267Z,77.60
2023-04-17T22:09:02.018Z,77.60
2023-04-17T22:12:13.604Z,77.10
2023-04-17T22:15:15.154Z,77.40
2023-04-17T22:18:20.714Z,77.00
2023-04-17T22:21:22.299Z,76.50
2023-04-17T22:24:24.272Z,76.40
2023-04-17T22:27:25.872Z,75.40
2023-04-17T22:30:27.451Z,76.60
2023-04-17T22:33:28.979Z,76.80
2023-04-17T22:36:31.039Z,76.60
2023-04-17T22:39:32.653Z,76.30
2023-04-17T22:42:34.522Z,76.10
2023-04-17T22:45:38.217Z,77.50
2023-04-17T22:48:40.588Z,75.90
2023-04-17T22:51:43.122Z,76.00
2023-04-17T22:54:44.662Z,76.20
2023-04-17T22:57:46.378Z,76.50
2023-04-17T23:00:48.023Z,75.80
2023-04-17T23:03:49.571Z,75.40
2023-04-17T23:06:51.224Z,75.20
2023-04-17T23:09:52.873Z,76.60
2023-04-17T23:12:54.391Z,75.90
2023-04-17T23:15:56.121Z,76.00
2023-04-17T23:18:57.994Z,76.30
2023-04-17T23:22:01.257Z,76.30
2023-04-17T23:25:03.078Z,76.60
2023-04-17T23:28:04.902Z,78.70
2023-04-17T23:31:06.751Z,76.90
2023-04-17T23:34:08.469Z,77.30
2023-04-17T23:37:10.055Z,77.10
2023-04-17T23:40:12.037Z,78.30
2023-04-17T23:43:13.777Z,77.10
2023-04-17T23:46:15.392Z,77.40
2023-04-17T23:49:17.045Z,78.20
2023-04-17T23:52:18.935Z,77.90
2023-04-17T23:55:22.257Z,78.10
2023-04-17T23:58:23.918Z,78.30
